Time;durP1;ratioP1;P1;durP2;ratioP2;P2;SDS_P1;SDS_P2;PMS_P1;PMS_P2;Temp;Humidity;BMP_temperature;BMP_pressure;BME280_temperature;BME280_humidity;BME280_pressure;Samples;Min_cycle;Max_cycle;Signal;HPM_P1;HPM_P2
2023/02/13 00:02:25;;;;;;;25.80;19.50;;;;;;;;;;5053206;28;20473;-67
2023/02/13 00:04:52;;;;;;;29.20;21.75;;;;;;;;;;5052898;28;20229;-67
2023/02/13 00:07:20;;;;;;;35.73;21.20;;;;;;;;;;5052901;28;20201;-67
2023/02/13 00:09:48;;;;;;;25.30;18.50;;;;;;;;;;5052951;28;20440;-67
2023/02/13 00:12:15;;;;;;;30.95;19.17;;;;;;;;;;5052070;28;20438;-67
2023/02/13 00:14:42;;;;;;;24.93;18.63;;;;;;;;;;5052506;28;20201;-67
2023/02/13 00:17:09;;;;;;;27.70;19.60;;;;;;;;;;5053428;28;20433;-67
2023/02/13 00:19:36;;;;;;;31.83;21.83;;;;;;;;;;5052766;28;20444;-66
2023/02/13 00:22:03;;;;;;;27.67;20.47;;;;;;;;;;5052925;28;20473;-67
2023/02/13 00:24:32;;;;;;;31.52;20.75;;;;;;;;;;5053301;28;20441;-67
2023/02/13 00:26:59;;;;;;;27.63;19.23;;;;;;;;;;5056546;28;20187;-67
2023/02/13 00:29:26;;;;;;;27.17;20.30;;;;;;;;;;5056634;28;20939;-67
2023/02/13 00:31:53;;;;;;;27.27;20.03;;;;;;;;;;5057002;28;20195;-67
2023/02/13 00:34:21;;;;;;;25.23;18.20;;;;;;;;;;5057005;28;20445;-67
2023/02/13 00:36:48;;;;;;;31.48;19.42;;;;;;;;;;5057016;28;20827;-67
2023/02/13 00:39:15;;;;;;;24.47;18.87;;;;;;;;;;5056965;28;20534;-67
2023/02/13 00:41:43;;;;;;;27.10;19.70;;;;;;;;;;5056608;28;20477;-67
2023/02/13 00:44:11;;;;;;;28.93;18.70;;;;;;;;;;5056630;28;20436;-67
2023/02/13 00:46:38;;;;;;;24.30;19.00;;;;;;;;;;5057244;28;20582;-67
2023/02/13 00:49:06;;;;;;;22.10;17.00;;;;;;;;;;5056610;28;20433;-67
2023/02/13 00:51:33;;;;;;;26.60;19.40;;;;;;;;;;5056131;28;20441;-67
2023/02/13 00:54:01;;;;;;;26.13;18.80;;;;;;;;;;5056184;28;20429;-67
2023/02/13 00:56:28;;;;;;;26.00;20.03;;;;;;;;;;5056358;28;20430;-67
2023/02/13 00:58:56;;;;;;;28.02;20.17;;;;;;;;;;5056487;28;20429;-67
2023/02/13 01:01:23;;;;;;;25.63;18.27;;;;;;;;;;5055896;28;20217;-67
2023/02/13 01:03:50;;;;;;;31.13;18.20;;;;;;;;;;5056185;28;20190;-67
2023/02/13 01:06:18;;;;;;;28.10;19.97;;;;;;;;;;5056126;28;20431;-67
2023/02/13 01:08:45;;;;;;;26.17;18.73;;;;;;;;;;5056176;28;20527;-68
2023/02/13 01:11:12;;;;;;;27.00;18.33;;;;;;;;;;5055940;28;20446;-67
2023/02/13 01:13:39;;;;;;;29.90;18.30;;;;;;;;;;5055879;28;20441;-67
2023/02/13 01:16:08;;;;;;;22.50;17.88;;;;;;;;;;5056218;28;20193;-67
2023/02/13 01:18:35;;;;;;;26.92;19.98;;;;;;;;;;5056095;28;20187;-68
2023/02/13 01:21:04;;;;;;;26.90;20.13;;;;;;;;;;5055568;28;20217;-67
2023/02/13 01:23:32;;;;;;;26.33;18.97;;;;;;;;;;5055849;28;20536;-67
2023/02/13 01:26:04;;;;;;;29.40;18.03;;;;;;;;;;5055918;28;20524;-67
2023/02/13 01:28:31;;;;;;;23.80;18.23;;;;;;;;;;5055992;28;20426;-67
2023/02/13 01:30:58;;;;;;;28.37;19.17;;;;;;;;;;5056072;28;20199;-67
2023/02/13 01:33:28;;;;;;;24.35;17.15;;;;;;;;;;5055325;28;20447;-68
2023/02/13 01:35:55;;;;;;;26.38;18.80;;;;;;;;;;5055677;28;20278;-67
2023/02/13 01:38:22;;;;;;;29.80;20.65;;;;;;;;;;5055218;28;20197;-67
2023/02/13 01:40:50;;;;;;;25.10;19.08;;;;;;;;;;5055552;28;20532;-68
2023/02/13 01:43:18;;;;;;;25.85;18.70;;;;;;;;;;5055485;28;20187;-67
2023/02/13 01:45:46;;;;;;;25.27;19.07;;;;;;;;;;5056347;28;20195;-67
2023/02/13 01:48:15;;;;;;;26.20;18.53;;;;;;;;;;5055440;28;20455;-67
2023/02/13 01:50:48;;;;;;;22.75;18.20;;;;;;;;;;5055432;28;20441;-67
2023/02/13 01:53:18;;;;;;;24.93;18.57;;;;;;;;;;5055483;28;20646;-67
2023/02/13 01:55:49;;;;;;;29.53;17.73;;;;;;;;;;5055420;28;20417;-67
2023/02/13 01:58:19;;;;;;;28.17;19.33;;;;;;;;;;5055564;28;20426;-67
2023/02/13 02:00:48;;;;;;;27.67;20.02;;;;;;;;;;5055750;28;20448;-67
2023/02/13 02:03:19;;;;;;;27.83;18.25;;;;;;;;;;5055382;28;20197;-67
2023/02/13 02:05:50;;;;;;;28.77;17.87;;;;;;;;;;5055432;28;20656;-67
2023/02/13 02:08:18;;;;;;;28.50;19.20;;;;;;;;;;5055553;28;20425;-67
2023/02/13 02:10:45;;;;;;;24.43;17.80;;;;;;;;;;5055090;28;20194;-67
2023/02/13 02:13:13;;;;;;;22.60;16.80;;;;;;;;;;5055043;28;20464;-67
2023/02/13 02:15:42;;;;;;;27.70;17.90;;;;;;;;;;5055190;28;20437;-67
2023/02/13 02:18:14;;;;;;;23.85;16.25;;;;;;;;;;5054546;28;20929;-67
2023/02/13 02:20:47;;;;;;;21.57;16.77;;;;;;;;;;5055157;28;20190;-67
2023/02/13 02:23:39;;;;;;;24.17;17.50;;;;;;;;;;5055139;28;20552;-67
2023/02/13 02:26:17;;;;;;;19.10;14.93;;;;;;;;;;5055174;28;20186;-67
2023/02/13 02:29:03;;;;;;;22.60;15.43;;;;;;;;;;5054372;28;20430;-67
2023/02/13 02:31:57;;;;;;;20.70;15.43;;;;;;;;;;5054821;28;20547;-67
2023/02/13 02:34:30;;;;;;;21.13;15.40;;;;;;;;;;4996681;28;20438;-67
2023/02/13 02:37:06;;;;;;;19.77;14.93;;;;;;;;;;5055179;28;20426;-67
2023/02/13 02:39:41;;;;;;;19.00;14.68;;;;;;;;;;5054519;28;20189;-67
2023/02/13 02:42:13;;;;;;;21.50;13.43;;;;;;;;;;5055254;28;20535;-67
2023/02/13 02:44:43;;;;;;;20.35;13.80;;;;;;;;;;5054450;28;20426;-67
2023/02/13 02:50:06;;;;;;;18.25;14.00;;;;;;;;;;5054181;28;20178;-67
2023/02/13 02:52:40;;;;;;;20.30;13.85;;;;;;;;;;5054801;28;20186;-67
2023/02/13 02:55:11;;;;;;;22.20;14.97;;;;;;;;;;5054208;28;20179;-67
2023/02/13 03:06:13;;;;;;;16.77;13.15;;;;;;;;;;5047421;28;20468;-67
2023/02/13 03:14:14;;;;;;;17.30;12.93;;;;;;;;;;5053775;28;20294;-66
2023/02/13 03:22:25;;;;;;;17.93;13.50;;;;;;;;;;5053469;28;20468;-67
2023/02/13 03:24:57;;;;;;;13.57;11.63;;;;;;;;;;5053356;28;20425;-67
2023/02/13 03:30:19;;;;;;;18.80;11.30;;;;;;;;;;5053501;28;20393;-67
2023/02/13 03:32:51;;;;;;;17.70;11.50;;;;;;;;;;5053667;28;20448;-67
2023/02/13 03:38:12;;;;;;;16.03;11.77;;;;;;;;;;5053752;28;20389;-67
2023/02/13 03:41:17;;;;;;;14.37;10.40;;;;;;;;;;5053494;28;20421;-67
2023/02/13 03:43:37;;;;;;;16.23;12.20;;;;;;;;;;5052869;28;20473;-67
2023/02/13 03:46:04;;;;;;;13.80;10.70;;;;;;;;;;5053241;28;20425;-67
2023/02/13 03:51:22;;;;;;;16.10;11.10;;;;;;;;;;5053620;28;20920;-67
2023/02/13 03:53:53;;;;;;;13.87;11.20;;;;;;;;;;5053347;28;20430;-67
2023/02/13 03:59:17;;;;;;;17.07;11.00;;;;;;;;;;5053242;28;20393;-67
2023/02/13 04:01:47;;;;;;;15.83;11.10;;;;;;;;;;5057832;28;20469;-67
2023/02/13 04:04:18;;;;;;;13.27;10.60;;;;;;;;;;5056786;28;20469;-67
2023/02/13 04:06:47;;;;;;;16.73;12.10;;;;;;;;;;5057476;28;20437;-67
2023/02/13 04:09:16;;;;;;;15.60;10.47;;;;;;;;;;5057380;28;20444;-67
2023/02/13 04:11:48;;;;;;;16.37;11.53;;;;;;;;;;5057707;28;20902;-67
2023/02/13 04:14:19;;;;;;;18.80;11.80;;;;;;;;;;5057158;28;20913;-67
2023/02/13 04:16:49;;;;;;;17.75;12.32;;;;;;;;;;5057008;28;20428;-67
2023/02/13 04:19:16;;;;;;;16.08;10.23;;;;;;;;;;5057152;28;20195;-67
2023/02/13 04:21:43;;;;;;;13.80;10.60;;;;;;;;;;5057059;28;20214;-67
2023/02/13 04:24:11;;;;;;;15.30;11.17;;;;;;;;;;5057300;28;20438;-67
2023/02/13 04:26:40;;;;;;;16.95;12.35;;;;;;;;;;5057349;28;20448;-67
2023/02/13 04:29:08;;;;;;;15.50;11.23;;;;;;;;;;5056900;28;20186;-68
2023/02/13 04:31:35;;;;;;;17.60;11.70;;;;;;;;;;5056868;28;20437;-66
2023/02/13 04:34:02;;;;;;;13.90;10.17;;;;;;;;;;5056843;28;20500;-67
2023/02/13 04:36:29;;;;;;;13.18;10.27;;;;;;;;;;5056414;28;20430;-67
2023/02/13 04:38:57;;;;;;;13.13;11.03;;;;;;;;;;5056892;28;20206;-66
2023/02/13 04:41:24;;;;;;;19.08;11.77;;;;;;;;;;5056422;28;20440;-64
2023/02/13 04:43:52;;;;;;;18.40;11.23;;;;;;;;;;5056698;28;20571;-65
2023/02/13 04:46:20;;;;;;;12.20;9.70;;;;;;;;;;5056574;28;20781;-65
2023/02/13 04:48:47;;;;;;;16.55;11.63;;;;;;;;;;5057216;28;20433;-65
2023/02/13 04:51:14;;;;;;;19.30;10.98;;;;;;;;;;5056449;28;20731;-65
2023/02/13 04:53:41;;;;;;;18.40;12.45;;;;;;;;;;5056615;28;20544;-65
2023/02/13 04:56:09;;;;;;;14.40;10.50;;;;;;;;;;5056083;28;20198;-65
2023/02/13 04:58:36;;;;;;;15.33;11.33;;;;;;;;;;5054876;28;20191;-64
2023/02/13 05:01:11;;;;;;;16.77;11.57;;;;;;;;;;5054689;28;20445;-65
2023/02/13 05:03:38;;;;;;;16.37;11.07;;;;;;;;;;5055213;28;20206;-65
2023/02/13 05:06:06;;;;;;;15.20;11.17;;;;;;;;;;5055929;28;20968;-65
2023/02/13 05:08:33;;;;;;;16.67;11.60;;;;;;;;;;5055562;28;20771;-65
2023/02/13 05:11:00;;;;;;;15.45;10.95;;;;;;;;;;5055173;28;20437;-65
2023/02/13 05:13:27;;;;;;;17.23;11.43;;;;;;;;;;5055812;28;20194;-66
2023/02/13 05:15:55;;;;;;;13.35;9.95;;;;;;;;;;5055360;28;20452;-65
2023/02/13 05:18:23;;;;;;;15.20;10.52;;;;;;;;;;5055367;28;20195;-66
2023/02/13 05:23:31;;;;;;;12.17;10.17;;;;;;;;;;5054418;28;20807;-65
2023/02/13 05:25:59;;;;;;;16.43;11.20;;;;;;;;;;5055574;28;20712;-65
2023/02/13 05:31:11;;;;;;;15.60;11.40;;;;;;;;;;5055159;28;20773;-69
2023/02/13 05:33:40;;;;;;;15.83;11.40;;;;;;;;;;5055312;28;20441;-63
2023/02/13 05:36:08;;;;;;;15.30;11.40;;;;;;;;;;5055167;28;20528;-63
2023/02/13 05:38:35;;;;;;;17.85;11.80;;;;;;;;;;5054844;28;20440;-63
2023/02/13 05:41:02;;;;;;;16.52;11.77;;;;;;;;;;5054854;28;20191;-64
2023/02/13 05:43:29;;;;;;;17.93;11.77;;;;;;;;;;5055167;28;20563;-63
2023/02/13 05:46:04;;;;;;;15.10;10.37;;;;;;;;;;5054678;28;20929;-64
2023/02/13 05:48:31;;;;;;;16.40;10.70;;;;;;;;;;5054649;28;20440;-64
2023/02/13 05:51:00;;;;;;;17.37;10.03;;;;;;;;;;5054722;28;20437;-63
2023/02/13 05:53:28;;;;;;;17.75;10.95;;;;;;;;;;5055038;28;20440;-63
2023/02/13 05:55:55;;;;;;;15.05;11.15;;;;;;;;;;5054552;28;20245;-63
2023/02/13 05:58:22;;;;;;;15.90;10.27;;;;;;;;;;5055262;28;20544;-63
2023/02/13 06:00:50;;;;;;;15.23;11.07;;;;;;;;;;5055070;28;20444;-63
2023/02/13 06:03:17;;;;;;;16.45;9.98;;;;;;;;;;5053141;28;20211;-63
2023/02/13 06:05:44;;;;;;;19.70;11.17;;;;;;;;;;5052823;28;20226;-63
2023/02/13 06:08:12;;;;;;;15.50;11.83;;;;;;;;;;5053828;28;20922;-63
2023/02/13 06:10:40;;;;;;;18.88;10.43;;;;;;;;;;5054816;28;20445;-65
2023/02/13 06:13:07;;;;;;;19.95;11.50;;;;;;;;;;5054518;28;20226;-63
2023/02/13 06:15:34;;;;;;;18.25;10.90;;;;;;;;;;5055054;28;20540;-63
2023/02/13 06:18:01;;;;;;;17.65;11.80;;;;;;;;;;5054950;28;20190;-63
2023/02/13 06:20:28;;;;;;;16.13;10.30;;;;;;;;;;5054970;28;20190;-63
2023/02/13 06:22:55;;;;;;;14.02;10.52;;;;;;;;;;5053881;28;20221;-63
2023/02/13 06:25:24;;;;;;;14.43;10.63;;;;;;;;;;5054572;28;20191;-63
2023/02/13 06:27:51;;;;;;;14.33;10.40;;;;;;;;;;5054714;28;20444;-63
2023/02/13 06:30:19;;;;;;;25.67;16.00;;;;;;;;;;5054659;28;20421;-63
2023/02/13 06:32:47;;;;;;;15.60;11.68;;;;;;;;;;5054475;28;20521;-63
2023/02/13 06:35:14;;;;;;;16.00;11.38;;;;;;;;;;5055071;28;20222;-63
2023/02/13 06:37:43;;;;;;;15.53;10.70;;;;;;;;;;5054433;28;20198;-63
2023/02/13 06:40:11;;;;;;;24.77;19.15;;;;;;;;;;5054290;28;20563;-63
2023/02/13 06:42:40;;;;;;;28.43;18.53;;;;;;;;;;5054316;28;20340;-63
2023/02/13 06:45:08;;;;;;;27.00;19.20;;;;;;;;;;5054343;28;20440;-63
2023/02/13 06:47:35;;;;;;;18.27;11.93;;;;;;;;;;5053986;28;20441;-63
2023/02/13 06:50:02;;;;;;;15.68;11.75;;;;;;;;;;5054828;28;20440;-63
2023/02/13 06:52:29;;;;;;;14.90;10.83;;;;;;;;;;5054466;28;20194;-63
2023/02/13 06:54:56;;;;;;;14.57;10.97;;;;;;;;;;5054475;28;20436;-63
2023/02/13 06:57:24;;;;;;;15.02;11.05;;;;;;;;;;5053711;28;20445;-64
2023/02/13 06:59:52;;;;;;;18.73;10.75;;;;;;;;;;5054031;28;20190;-64
2023/02/13 07:02:19;;;;;;;20.58;12.50;;;;;;;;;;5054235;28;20201;-64
2023/02/13 07:04:46;;;;;;;14.67;10.43;;;;;;;;;;5053676;28;20228;-63
2023/02/13 07:07:14;;;;;;;15.65;11.48;;;;;;;;;;5054001;28;20549;-63
2023/02/13 07:09:41;;;;;;;20.13;10.60;;;;;;;;;;5054041;28;20192;-64
2023/02/13 07:12:09;;;;;;;16.83;11.00;;;;;;;;;;5054524;28;20433;-64
2023/02/13 07:14:36;;;;;;;15.20;11.10;;;;;;;;;;5054260;28;20217;-64
2023/02/13 07:17:05;;;;;;;15.60;11.45;;;;;;;;;;5054202;28;20775;-63
2023/02/13 07:19:32;;;;;;;20.10;11.57;;;;;;;;;;5053877;28;20194;-64
2023/02/13 07:21:59;;;;;;;16.67;11.23;;;;;;;;;;5053834;28;20195;-64
2023/02/13 07:24:27;;;;;;;15.48;10.65;;;;;;;;;;5053721;28;20477;-63
2023/02/13 07:26:54;;;;;;;15.20;11.30;;;;;;;;;;5053877;28;20199;-64
2023/02/13 07:29:21;;;;;;;14.83;12.43;;;;;;;;;;5053804;28;20432;-63
2023/02/13 07:31:48;;;;;;;18.98;13.35;;;;;;;;;;5053569;28;20527;-65
2023/02/13 07:34:17;;;;;;;22.60;12.40;;;;;;;;;;5053382;28;20190;-64
2023/02/13 07:36:44;;;;;;;17.90;13.20;;;;;;;;;;5053609;28;20556;-64
2023/02/13 07:39:11;;;;;;;15.77;12.43;;;;;;;;;;5053471;28;20440;-64
2023/02/13 07:41:38;;;;;;;20.73;16.07;;;;;;;;;;5053556;28;20440;-64
2023/02/13 07:44:06;;;;;;;20.38;14.88;;;;;;;;;;5053078;28;20479;-64
2023/02/13 07:46:33;;;;;;;15.50;12.50;;;;;;;;;;5053537;28;20628;-64
2023/02/13 07:49:00;;;;;;;17.80;11.18;;;;;;;;;;5053491;28;20433;-64
2023/02/13 07:51:28;;;;;;;19.70;13.90;;;;;;;;;;5053721;28;20197;-64
2023/02/13 07:53:56;;;;;;;18.10;13.52;;;;;;;;;;5053584;28;20438;-64
2023/02/13 07:56:23;;;;;;;17.47;11.93;;;;;;;;;;5053050;28;20196;-64
2023/02/13 07:58:50;;;;;;;18.90;13.03;;;;;;;;;;5053236;28;20935;-64
2023/02/13 08:01:18;;;;;;;15.00;12.00;;;;;;;;;;5053332;28;20429;-64
2023/02/13 08:03:49;;;;;;;14.43;11.40;;;;;;;;;;5052946;28;20485;-63
2023/02/13 08:06:17;;;;;;;12.97;11.20;;;;;;;;;;5053026;28;20475;-64
2023/02/13 08:08:45;;;;;;;15.93;11.40;;;;;;;;;;5053147;28;20421;-63
2023/02/13 08:14:04;;;;;;;16.33;12.93;;;;;;;;;;5039862;28;20431;-64
2023/02/13 08:16:31;;;;;;;16.33;12.77;;;;;;;;;;5053437;28;20436;-64
2023/02/13 08:18:58;;;;;;;14.25;10.68;;;;;;;;;;5053243;28;20199;-64
2023/02/13 08:21:26;;;;;;;12.23;10.60;;;;;;;;;;5052880;28;20201;-64
2023/02/13 08:23:54;;;;;;;14.43;11.03;;;;;;;;;;5052965;28;20477;-64
2023/02/13 08:26:21;;;;;;;15.97;11.17;;;;;;;;;;5052727;28;20438;-64
2023/02/13 08:28:49;;;;;;;11.75;10.13;;;;;;;;;;5052731;28;20910;-64
2023/02/13 08:31:16;;;;;;;13.02;11.00;;;;;;;;;;5052710;28;20191;-64
2023/02/13 08:33:43;;;;;;;12.80;10.70;;;;;;;;;;5052561;28;20196;-64
2023/02/13 08:36:10;;;;;;;12.65;9.65;;;;;;;;;;5052955;28;20753;-64
2023/02/13 08:38:37;;;;;;;16.37;12.10;;;;;;;;;;5052829;28;20195;-64
2023/02/13 08:41:06;;;;;;;19.07;11.67;;;;;;;;;;5053018;28;20425;-64
2023/02/13 08:43:33;;;;;;;18.13;11.73;;;;;;;;;;5053285;28;20815;-64
2023/02/13 08:46:00;;;;;;;12.88;11.15;;;;;;;;;;5053949;28;20456;-64
2023/02/13 08:48:27;;;;;;;16.00;11.67;;;;;;;;;;5056293;28;20187;-64
2023/02/13 08:50:55;;;;;;;14.05;11.48;;;;;;;;;;5056650;28;20772;-64
2023/02/13 08:53:22;;;;;;;13.97;11.50;;;;;;;;;;5056895;28;20191;-64
2023/02/13 08:55:52;;;;;;;13.63;11.60;;;;;;;;;;5056452;28;20444;-64
2023/02/13 08:58:21;;;;;;;14.73;12.20;;;;;;;;;;5056124;28;20915;-64
2023/02/13 09:00:48;;;;;;;17.17;13.00;;;;;;;;;;5056553;28;20449;-64
2023/02/13 09:03:16;;;;;;;15.20;12.93;;;;;;;;;;5054863;28;20591;-65
2023/02/13 09:05:43;;;;;;;15.30;11.90;;;;;;;;;;5055698;28;20473;-65
2023/02/13 09:08:12;;;;;;;17.07;13.20;;;;;;;;;;5055839;28;20433;-64
2023/02/13 09:10:40;;;;;;;16.57;13.50;;;;;;;;;;5056116;28;20442;-64
2023/02/13 09:13:07;;;;;;;14.80;12.30;;;;;;;;;;5055749;28;20433;-65
2023/02/13 09:15:39;;;;;;;21.50;13.77;;;;;;;;;;5056719;28;20430;-64
2023/02/13 09:18:06;;;;;;;16.50;13.93;;;;;;;;;;5056666;28;20434;-64
2023/02/13 09:20:34;;;;;;;16.37;13.37;;;;;;;;;;5056000;28;20464;-64
2023/02/13 09:23:01;;;;;;;18.17;14.87;;;;;;;;;;5055729;28;20442;-64
2023/02/13 09:25:28;;;;;;;14.60;13.00;;;;;;;;;;5055913;28;20441;-64
2023/02/13 09:27:55;;;;;;;15.03;13.03;;;;;;;;;;5055997;28;20434;-64
2023/02/13 09:30:23;;;;;;;14.20;12.30;;;;;;;;;;5055867;28;20444;-64
2023/02/13 09:32:51;;;;;;;16.07;12.83;;;;;;;;;;5055885;28;20488;-64
2023/02/13 09:35:19;;;;;;;18.00;13.43;;;;;;;;;;5055891;28;20439;-64
2023/02/13 09:37:46;;;;;;;17.67;13.00;;;;;;;;;;5056045;28;20461;-64
2023/02/13 09:40:22;;;;;;;15.10;12.50;;;;;;;;;;5055635;28;20528;-64
2023/02/13 09:42:50;;;;;;;19.43;13.60;;;;;;;;;;5055692;28;20444;-64
2023/02/13 09:45:17;;;;;;;17.63;13.77;;;;;;;;;;5055045;28;21067;-64
2023/02/13 09:47:45;;;;;;;20.90;16.13;;;;;;;;;;5055484;28;20495;-64
2023/02/13 09:50:17;;;;;;;16.57;12.10;;;;;;;;;;5055438;28;20429;-64
2023/02/13 09:52:50;;;;;;;17.23;12.90;;;;;;;;;;5055327;28;20420;-64
2023/02/13 09:55:18;;;;;;;18.60;12.37;;;;;;;;;;5055691;28;20419;-64
2023/02/13 09:57:48;;;;;;;19.17;14.43;;;;;;;;;;5053829;28;20929;-64
2023/02/13 10:00:18;;;;;;;16.73;12.73;;;;;;;;;;5055357;28;20440;-64
2023/02/13 10:02:53;;;;;;;13.97;12.47;;;;;;;;;;5056039;28;20437;-64
2023/02/13 10:05:27;;;;;;;16.37;11.80;;;;;;;;;;5054752;28;20489;-64
2023/02/13 10:07:58;;;;;;;18.60;11.93;;;;;;;;;;5055749;28;20512;-64
2023/02/13 10:10:31;;;;;;;15.13;12.40;;;;;;;;;;5055082;28;20430;-64
2023/02/13 10:13:04;;;;;;;14.77;11.60;;;;;;;;;;5055425;28;20791;-65
2023/02/13 10:15:35;;;;;;;14.60;12.07;;;;;;;;;;5055259;28;20431;-64
2023/02/13 10:18:04;;;;;;;18.53;11.60;;;;;;;;;;5055291;28;20525;-64
2023/02/13 10:20:36;;;;;;;14.70;13.03;;;;;;;;;;5054495;28;20436;-64
2023/02/13 10:23:10;;;;;;;12.70;11.40;;;;;;;;;;5054844;28;20429;-64
2023/02/13 10:25:42;;;;;;;13.90;11.43;;;;;;;;;;5054394;28;20461;-64
2023/02/13 10:28:12;;;;;;;22.23;12.87;;;;;;;;;;5054832;28;20433;-65
2023/02/13 10:30:44;;;;;;;14.87;12.90;;;;;;;;;;5055112;28;20442;-65
2023/02/13 10:33:20;;;;;;;17.20;12.30;;;;;;;;;;5054961;28;20419;-62
2023/02/13 10:35:54;;;;;;;15.40;12.13;;;;;;;;;;5054332;28;20493;-65
2023/02/13 10:38:22;;;;;;;14.17;12.73;;;;;;;;;;5055198;28;20433;-65
2023/02/13 10:41:04;;;;;;;16.60;12.70;;;;;;;;;;5054456;28;20439;-64
2023/02/13 10:43:39;;;;;;;19.40;13.50;;;;;;;;;;5054487;28;20476;-64
2023/02/13 10:46:13;;;;;;;14.83;11.77;;;;;;;;;;5054198;28;20908;-64
2023/02/13 10:48:54;;;;;;;16.83;12.90;;;;;;;;;;5054124;28;20423;-64
2023/02/13 10:51:27;;;;;;;15.60;13.20;;;;;;;;;;5054474;28;20513;-64
2023/02/13 10:54:00;;;;;;;12.87;11.00;;;;;;;;;;5055123;28;20431;-65
2023/02/13 10:56:31;;;;;;;13.30;11.83;;;;;;;;;;5054198;28;20522;-64
2023/02/13 10:59:05;;;;;;;15.43;11.87;;;;;;;;;;5053994;28;20507;-65
2023/02/13 11:01:35;;;;;;;14.27;12.20;;;;;;;;;;5053841;28;20426;-65
2023/02/13 11:04:05;;;;;;;14.40;11.57;;;;;;;;;;5053771;28;20504;-65
2023/02/13 11:06:37;;;;;;;15.00;12.37;;;;;;;;;;5054162;28;20483;-65
2023/02/13 11:09:06;;;;;;;14.00;11.97;;;;;;;;;;5054571;28;20498;-64
2023/02/13 11:11:35;;;;;;;15.40;13.80;;;;;;;;;;5053956;28;20439;-64
2023/02/13 11:14:09;;;;;;;14.17;12.77;;;;;;;;;;5054017;28;20437;-64
2023/02/13 11:16:47;;;;;;;15.30;13.77;;;;;;;;;;5053811;28;20516;-64
2023/02/13 11:19:18;;;;;;;14.33;12.83;;;;;;;;;;5053852;28;20425;-65
2023/02/13 11:21:48;;;;;;;14.20;12.70;;;;;;;;;;5053418;28;20445;-64
2023/02/13 11:24:19;;;;;;;17.77;13.13;;;;;;;;;;5054047;28;20470;-64
2023/02/13 11:26:50;;;;;;;14.07;12.43;;;;;;;;;;5053671;28;20442;-64
2023/02/13 11:29:19;;;;;;;14.87;12.53;;;;;;;;;;5053554;28;20425;-64
2023/02/13 11:31:46;;;;;;;14.80;12.50;;;;;;;;;;5053812;28;20430;-64
2023/02/13 11:34:25;;;;;;;14.17;12.67;;;;;;;;;;5053585;28;20989;-65
2023/02/13 11:36:54;;;;;;;14.83;12.47;;;;;;;;;;5053762;28;20422;-65
2023/02/13 11:39:23;;;;;;;14.67;12.80;;;;;;;;;;5053570;28;20435;-65
2023/02/13 11:41:50;;;;;;;14.60;12.50;;;;;;;;;;5053686;28;20432;-64
2023/02/13 11:44:23;;;;;;;13.43;12.03;;;;;;;;;;5053415;28;20489;-64
2023/02/13 11:46:51;;;;;;;13.13;11.70;;;;;;;;;;5053495;28;20532;-63
2023/02/13 11:49:19;;;;;;;15.50;12.43;;;;;;;;;;5053126;28;20449;-63
2023/02/13 11:51:48;;;;;;;14.83;12.80;;;;;;;;;;5053608;28;20433;-64
2023/02/13 11:54:22;;;;;;;17.10;13.17;;;;;;;;;;5053460;28;20767;-64
2023/02/13 11:56:51;;;;;;;15.90;13.60;;;;;;;;;;5053760;28;20428;-63
2023/02/13 11:59:18;;;;;;;15.07;12.87;;;;;;;;;;5053303;28;20438;-64
2023/02/13 12:01:49;;;;;;;15.93;12.83;;;;;;;;;;5053252;28;20429;-64
2023/02/13 12:04:17;;;;;;;14.97;12.67;;;;;;;;;;5053058;28;20489;-63
2023/02/13 12:06:59;;;;;;;14.90;12.90;;;;;;;;;;5052961;28;20421;-64
2023/02/13 12:09:27;;;;;;;16.20;13.27;;;;;;;;;;5053427;28;20892;-63
2023/02/13 12:11:57;;;;;;;14.90;13.43;;;;;;;;;;5053266;28;20434;-63
2023/02/13 12:14:27;;;;;;;15.38;12.02;;;;;;;;;;5053404;28;20444;-63
2023/02/13 12:16:56;;;;;;;23.03;13.90;;;;;;;;;;5052855;28;20186;-64
2023/02/13 12:19:25;;;;;;;17.90;14.17;;;;;;;;;;5052842;28;20444;-63
2023/02/13 12:22:01;;;;;;;21.33;12.90;;;;;;;;;;5055908;28;20428;-64
2023/02/13 12:24:42;;;;;;;16.57;12.80;;;;;;;;;;5057466;28;20825;-63
2023/02/13 12:27:14;;;;;;;13.53;11.93;;;;;;;;;;5057311;28;20421;-63
2023/02/13 12:29:51;;;;;;;17.07;12.63;;;;;;;;;;5057080;28;20435;-63
2023/02/13 12:32:21;;;;;;;14.17;12.27;;;;;;;;;;5057375;28;20421;-63
2023/02/13 12:35:15;;;;;;;15.60;13.57;;;;;;;;;;5056497;28;20449;-64
2023/02/13 12:37:52;;;;;;;16.63;14.50;;;;;;;;;;4998658;28;20452;-64
2023/02/13 12:40:30;;;;;;;14.53;12.87;;;;;;;;;;5057038;28;20432;-63
2023/02/13 12:43:05;;;;;;;14.70;12.70;;;;;;;;;;5056845;28;20436;-63
2023/02/13 12:45:37;;;;;;;16.50;13.77;;;;;;;;;;5056716;28;20463;-64
2023/02/13 12:48:12;;;;;;;18.43;14.50;;;;;;;;;;5056707;28;20426;-64
2023/02/13 12:50:45;;;;;;;14.80;12.73;;;;;;;;;;5056387;28;20917;-63
2023/02/13 12:53:18;;;;;;;15.57;12.63;;;;;;;;;;5056213;28;20475;-64
2023/02/13 12:55:59;;;;;;;16.13;12.43;;;;;;;;;;5057103;28;20430;-64
2023/02/13 12:58:37;;;;;;;15.00;12.17;;;;;;;;;;5056592;28;20432;-63
2023/02/13 13:01:13;;;;;;;16.93;13.37;;;;;;;;;;5056914;28;20433;-64
2023/02/13 13:03:44;;;;;;;14.67;12.50;;;;;;;;;;5056273;28;20438;-64
2023/02/13 13:06:19;;;;;;;14.30;12.70;;;;;;;;;;5055675;28;20477;-64
2023/02/13 13:09:01;;;;;;;15.60;12.13;;;;;;;;;;5056419;28;20483;-66
2023/02/13 13:11:34;;;;;;;14.20;11.83;;;;;;;;;;5056464;28;20426;-63
2023/02/13 13:14:04;;;;;;;15.40;13.57;;;;;;;;;;5056074;28;20736;-63
2023/02/13 13:16:36;;;;;;;12.60;11.13;;;;;;;;;;5055811;28;20449;-63
2023/02/13 13:19:09;;;;;;;13.80;11.10;;;;;;;;;;5056485;28;20426;-63
2023/02/13 13:21:38;;;;;;;13.83;12.10;;;;;;;;;;5056552;28;20432;-64
2023/02/13 13:24:07;;;;;;;12.73;11.43;;;;;;;;;;5056386;28;20440;-63
2023/02/13 13:26:39;;;;;;;13.93;12.07;;;;;;;;;;5055701;28;20478;-63
2023/02/13 13:29:08;;;;;;;14.37;12.50;;;;;;;;;;5056591;28;20425;-63
2023/02/13 13:31:36;;;;;;;15.10;12.80;;;;;;;;;;5055186;28;20434;-63
2023/02/13 13:34:06;;;;;;;13.90;11.77;;;;;;;;;;5055735;28;20442;-63
2023/02/13 13:36:37;;;;;;;13.97;11.53;;;;;;;;;;5055821;28;20499;-65
2023/02/13 13:39:06;;;;;;;13.50;10.33;;;;;;;;;;5055525;28;20469;-64
2023/02/13 13:41:40;;;;;;;13.63;11.40;;;;;;;;;;5055946;28;20431;-64
2023/02/13 13:44:17;;;;;;;11.73;10.10;;;;;;;;;;5055992;28;20900;-64
2023/02/13 13:46:49;;;;;;;12.80;9.53;;;;;;;;;;5055703;28;20467;-64
2023/02/13 13:49:25;;;;;;;13.00;10.40;;;;;;;;;;5055826;28;20441;-64
2023/02/13 13:51:52;;;;;;;13.80;10.60;;;;;;;;;;5060417;28;20421;-65
2023/02/13 13:54:20;;;;;;;12.30;10.07;;;;;;;;;;5075716;28;20432;-64
2023/02/13 13:57:07;;;;;;;12.57;11.27;;;;;;;;;;5054663;28;20448;-64
2023/02/13 13:59:52;;;;;;;14.47;10.60;;;;;;;;;;5054738;28;20432;-64
2023/02/13 14:02:39;;;;;;;12.63;10.63;;;;;;;;;;5054332;28;20499;-64
2023/02/13 14:05:18;;;;;;;12.07;9.73;;;;;;;;;;5054669;28;20477;-64
2023/02/13 14:07:46;;;;;;;13.23;10.87;;;;;;;;;;5054737;28;20419;-64
2023/02/13 14:10:41;;;;;;;13.30;10.97;;;;;;;;;;5054524;28;20438;-64
2023/02/13 14:13:09;;;;;;;11.63;10.10;;;;;;;;;;5054307;28;20440;-63
2023/02/13 14:15:50;;;;;;;14.20;11.23;;;;;;;;;;5054454;28;20845;-63
2023/02/13 14:18:21;;;;;;;18.60;12.33;;;;;;;;;;5054356;28;20780;-63
2023/02/13 14:20:51;;;;;;;11.77;10.57;;;;;;;;;;5054048;28;20423;-64
2023/02/13 14:23:23;;;;;;;11.53;10.40;;;;;;;;;;5054757;28;20786;-64
2023/02/13 14:25:51;;;;;;;12.73;11.30;;;;;;;;;;5054233;28;20842;-64
2023/02/13 14:28:24;;;;;;;12.13;10.83;;;;;;;;;;5053791;28;20978;-64
2023/02/13 14:30:52;;;;;;;11.70;10.37;;;;;;;;;;5053944;28;20486;-64
2023/02/13 14:33:25;;;;;;;12.60;10.40;;;;;;;;;;5053987;28;20449;-64
2023/02/13 14:36:00;;;;;;;12.50;10.50;;;;;;;;;;5053931;28;20438;-64
2023/02/13 14:38:28;;;;;;;13.50;10.93;;;;;;;;;;5053855;28;20775;-64
2023/02/13 14:40:55;;;;;;;10.67;9.20;;;;;;;;;;5053929;28;20438;-64
2023/02/13 14:43:27;;;;;;;13.23;11.20;;;;;;;;;;5053496;28;20450;-64
2023/02/13 14:45:56;;;;;;;13.30;11.00;;;;;;;;;;5053927;28;20462;-64
2023/02/13 14:48:25;;;;;;;11.97;9.07;;;;;;;;;;5053701;28;20446;-64
2023/02/13 14:50:55;;;;;;;11.50;9.70;;;;;;;;;;5053824;28;20437;-64
2023/02/13 14:53:25;;;;;;;15.57;11.20;;;;;;;;;;5054021;28;20455;-64
2023/02/13 14:55:56;;;;;;;11.00;9.17;;;;;;;;;;5053889;28;20837;-64
2023/02/13 14:58:26;;;;;;;11.17;8.70;;;;;;;;;;5054285;28;20424;-64
2023/02/13 15:00:55;;;;;;;11.00;8.57;;;;;;;;;;5053691;28;20905;-64
2023/02/13 15:03:28;;;;;;;11.40;9.50;;;;;;;;;;5053785;28;20978;-64
2023/02/13 15:05:58;;;;;;;11.30;9.33;;;;;;;;;;5053402;28;20481;-64
2023/02/13 15:08:26;;;;;;;10.90;8.73;;;;;;;;;;5053087;28;20441;-64
2023/02/13 15:10:54;;;;;;;13.10;9.70;;;;;;;;;;5053585;28;20783;-66
2023/02/13 15:13:22;;;;;;;10.03;8.93;;;;;;;;;;5053831;28;20431;-63
2023/02/13 15:15:53;;;;;;;10.40;8.60;;;;;;;;;;5053388;28;20447;-63
2023/02/13 15:18:22;;;;;;;10.20;9.20;;;;;;;;;;5053782;28;20422;-63